createdAt,value
2018-12-16T00:01:29.951Z,44.10
2018-12-16T00:03:57.505Z,41.47
2018-12-16T00:06:25.051Z,49.60
2018-12-16T00:08:52.616Z,44.37
2018-12-16T00:11:20.180Z,41.07
2018-12-16T00:13:47.751Z,49.33
2018-12-16T00:16:15.608Z,44.43
2018-12-16T00:18:43.159Z,46.00
2018-12-16T00:21:10.721Z,43.90
2018-12-16T00:23:38.548Z,47.17
2018-12-16T00:26:06.101Z,51.53
2018-12-16T00:28:33.660Z,41.17
2018-12-16T00:31:01.228Z,49.17
2018-12-16T00:33:28.808Z,49.90
2018-12-16T00:35:56.385Z,49.90
2018-12-16T00:38:23.956Z,47.23
2018-12-16T00:40:51.519Z,47.50
2018-12-16T00:43:19.081Z,50.23
2018-12-16T00:45:46.656Z,48.53
2018-12-16T00:48:14.216Z,47.57
2018-12-16T00:50:41.783Z,51.17
2018-12-16T00:53:09.344Z,45.50
2018-12-16T00:55:37.864Z,49.47
2018-12-16T00:58:05.420Z,47.67
2018-12-16T01:00:33.419Z,40.57
2018-12-16T01:03:01.063Z,54.63
2018-12-16T01:05:28.868Z,55.53
2018-12-16T01:07:56.430Z,50.77
2018-12-16T01:10:23.992Z,48.40
2018-12-16T01:12:51.549Z,47.23
2018-12-16T01:15:19.107Z,50.80
2018-12-16T01:17:46.655Z,51.33
2018-12-16T01:20:14.207Z,53.77
2018-12-16T01:22:43.562Z,53.37
2018-12-16T01:25:11.396Z,49.83
2018-12-16T01:27:38.951Z,46.57
2018-12-16T01:30:06.515Z,49.10
2018-12-16T01:32:34.086Z,50.07
2018-12-16T01:35:01.640Z,49.57
2018-12-16T01:37:30.028Z,50.13
2018-12-16T01:39:57.579Z,48.27
2018-12-16T01:42:25.144Z,51.63
2018-12-16T01:44:52.704Z,50.20
2018-12-16T01:47:20.263Z,48.33
2018-12-16T01:49:47.832Z,44.60
2018-12-16T01:52:15.392Z,48.03
2018-12-16T01:54:42.951Z,49.20
2018-12-16T01:57:10.525Z,50.63
2018-12-16T01:59:38.087Z,51.40
2018-12-16T02:02:08.341Z,44.10
2018-12-16T02:04:35.907Z,51.53
2018-12-16T02:07:04.188Z,51.87
2018-12-16T02:09:31.760Z,46.43
2018-12-16T02:11:59.337Z,49.20
2018-12-16T02:14:26.895Z,48.00
2018-12-16T02:16:54.469Z,51.30
2018-12-16T02:19:22.024Z,51.60
2018-12-16T02:21:51.868Z,54.87
2018-12-16T02:24:19.466Z,46.97
2018-12-16T02:26:47.032Z,46.93
2018-12-16T02:29:14.611Z,48.00
2018-12-16T02:31:42.182Z,50.70
2018-12-16T02:34:09.736Z,45.57
2018-12-16T02:36:37.636Z,48.37
2018-12-16T02:39:05.208Z,48.20
2018-12-16T02:41:33.372Z,45.30
2018-12-16T02:44:01.192Z,45.20
2018-12-16T02:46:28.769Z,50.53
2018-12-16T02:48:57.898Z,50.10
2018-12-16T02:51:25.474Z,48.83
2018-12-16T02:53:53.034Z,50.00
2018-12-16T02:56:20.590Z,53.23
2018-12-16T02:58:48.157Z,51.27
2018-12-16T03:01:15.720Z,48.50
2018-12-16T03:03:43.282Z,46.50
2018-12-16T03:06:10.851Z,46.93
2018-12-16T03:08:38.432Z,47.27
2018-12-16T03:11:05.985Z,46.87
2018-12-16T03:13:33.548Z,53.60
2018-12-16T03:16:01.108Z,51.07
2018-12-16T03:18:28.683Z,50.10
2018-12-16T03:20:56.249Z,49.23
2018-12-16T03:23:24.672Z,53.67
2018-12-16T03:25:52.681Z,52.53
2018-12-16T03:28:20.274Z,51.13
2018-12-16T03:30:47.836Z,53.30
2018-12-16T03:33:15.406Z,48.63
2018-12-16T03:35:42.972Z,53.03
2018-12-16T03:38:11.187Z,55.23
2018-12-16T03:40:38.745Z,56.20
2018-12-16T03:43:07.096Z,57.93
2018-12-16T03:45:34.657Z,47.90
2018-12-16T03:48:02.204Z,47.37
2018-12-16T03:50:30.285Z,55.67
2018-12-16T03:52:57.835Z,53.83
2018-12-16T03:55:25.392Z,52.50
2018-12-16T03:57:53.247Z,52.43
2018-12-16T04:00:20.800Z,54.30
2018-12-16T04:02:49.300Z,55.40
2018-12-16T04:05:17.145Z,52.53
2018-12-16T04:07:44.696Z,48.47
2018-12-16T04:10:12.488Z,53.13
2018-12-16T04:12:40.053Z,54.30
2018-12-16T04:15:07.609Z,60.17
2018-12-16T04:17:35.178Z,55.80
2018-12-16T04:20:02.756Z,51.20
2018-12-16T04:22:30.311Z,59.37
2018-12-16T04:24:57.872Z,54.33
2018-12-16T04:27:26.090Z,58.03
2018-12-16T04:29:53.648Z,59.50
2018-12-16T04:32:21.209Z,60.87
2018-12-16T04:34:48.887Z,56.10
2018-12-16T04:37:16.444Z,59.83
2018-12-16T04:39:43.999Z,57.07
2018-12-16T04:42:11.877Z,64.27
2018-12-16T04:44:39.433Z,64.73
2018-12-16T04:47:07.936Z,62.80
2018-12-16T04:49:36.008Z,58.47
2018-12-16T04:52:03.561Z,54.60
2018-12-16T04:54:31.280Z,61.23
2018-12-16T04:56:58.835Z,58.67
2018-12-16T04:59:26.399Z,67.37
2018-12-16T05:01:54.930Z,63.13
2018-12-16T05:04:22.484Z,69.23
2018-12-16T05:06:50.076Z,65.57
2018-12-16T05:09:17.629Z,61.43
2018-12-16T05:11:45.206Z,63.37
2018-12-16T05:14:12.751Z,65.93
2018-12-16T05:16:40.309Z,68.63
2018-12-16T05:19:07.900Z,66.47
2018-12-16T05:21:35.447Z,69.67
2018-12-16T05:24:03.000Z,70.67
2018-12-16T05:26:31.703Z,70.93
2018-12-16T05:28:59.272Z,79.47
2018-12-16T05:31:26.824Z,67.70
2018-12-16T05:33:54.373Z,67.97
2018-12-16T05:36:22.790Z,66.13
2018-12-16T05:38:50.923Z,68.23
2018-12-16T05:41:18.481Z,72.70
2018-12-16T05:43:47.036Z,72.10
2018-12-16T05:46:14.588Z,75.13
2018-12-16T05:48:43.724Z,64.93
2018-12-16T05:51:11.830Z,73.80
2018-12-16T05:53:39.624Z,75.43
2018-12-16T05:56:07.888Z,76.93
2018-12-16T05:58:35.439Z,83.87
2018-12-16T06:01:02.984Z,71.73
2018-12-16T06:03:32.008Z,75.00
2018-12-16T06:05:59.634Z,84.80
2018-12-16T06:08:27.269Z,74.43
2018-12-16T06:10:55.249Z,75.43
2018-12-16T06:13:22.803Z,81.20
2018-12-16T06:15:50.357Z,83.70
2018-12-16T06:18:18.294Z,84.80
2018-12-16T06:20:45.849Z,84.40
2018-12-16T06:23:13.753Z,91.07
2018-12-16T06:25:41.313Z,81.43
2018-12-16T06:28:08.864Z,80.30
2018-12-16T06:30:36.698Z,89.97
2018-12-16T06:33:04.572Z,83.40
2018-12-16T06:35:32.128Z,84.40
2018-12-16T06:37:59.954Z,91.07
2018-12-16T06:40:27.509Z,81.10
2018-12-16T06:42:55.059Z,87.23
2018-12-16T06:45:22.953Z,79.37
2018-12-16T06:47:50.513Z,76.77
2018-12-16T06:50:18.678Z,92.50
2018-12-16T06:52:48.108Z,92.57
2018-12-16T06:55:15.668Z,90.30
2018-12-16T06:57:43.696Z,85.90
2018-12-16T07:00:12.836Z,87.20
2018-12-16T07:02:40.821Z,84.93
2018-12-16T07:05:08.391Z,96.23
2018-12-16T07:07:36.700Z,100.83
2018-12-16T07:10:04.259Z,108.40
2018-12-16T07:12:31.812Z,109.97
2018-12-16T07:14:59.376Z,97.93
2018-12-16T07:17:26.932Z,108.10
2018-12-16T07:19:54.491Z,106.70
2018-12-16T07:22:22.052Z,101.00
2018-12-16T07:24:50.091Z,93.47
2018-12-16T07:27:17.773Z,100.87
2018-12-16T07:29:45.343Z,127.53
2018-12-16T07:32:13.266Z,101.73
2018-12-16T07:34:40.828Z,119.17
2018-12-16T07:37:08.390Z,112.00
2018-12-16T07:39:36.002Z,120.77
2018-12-16T07:42:03.566Z,115.63
2018-12-16T07:44:31.121Z,116.87
2018-12-16T07:46:59.045Z,112.93
2018-12-16T07:49:26.604Z,112.97
2018-12-16T07:51:54.160Z,121.60
2018-12-16T07:54:22.037Z,120.10
2018-12-16T07:56:49.619Z,105.43
2018-12-16T07:59:17.203Z,128.68
2018-12-16T08:01:45.019Z,124.37
2018-12-16T08:04:13.460Z,95.10
2018-12-16T08:06:41.863Z,171.80
2018-12-16T08:09:10.336Z,141.23
2018-12-16T08:11:38.572Z,142.17
2018-12-16T08:14:06.132Z,134.30
2018-12-16T08:16:33.696Z,109.07
2018-12-16T08:19:06.999Z,174.70
2018-12-16T08:21:31.289Z,148.00
2018-12-16T08:23:59.545Z,196.20
2018-12-16T08:26:27.102Z,166.30
2018-12-16T08:28:55.587Z,121.40
2018-12-16T08:31:24.087Z,123.17
2018-12-16T08:33:51.647Z,119.93
2018-12-16T08:36:19.203Z,123.93
2018-12-16T08:38:46.762Z,129.47
2018-12-16T08:41:14.343Z,154.27
2018-12-16T08:43:41.900Z,111.37
2018-12-16T08:46:09.465Z,166.20
2018-12-16T08:48:37.067Z,151.37
2018-12-16T08:51:04.632Z,143.10
2018-12-16T08:53:32.447Z,168.28
2018-12-16T08:56:00.791Z,147.90
2018-12-16T08:58:28.352Z,216.17
2018-12-16T09:00:55.912Z,152.03
2018-12-16T09:03:23.480Z,123.20
2018-12-16T09:05:51.033Z,164.87
2018-12-16T09:08:19.124Z,155.20
2018-12-16T09:10:46.684Z,158.17
2018-12-16T09:13:14.242Z,124.97
2018-12-16T09:15:42.064Z,130.10
2018-12-16T09:18:09.627Z,137.80
2018-12-16T09:20:37.189Z,143.47
2018-12-16T09:23:04.801Z,150.97
2018-12-16T09:25:32.397Z,190.27
2018-12-16T09:27:59.952Z,100.03
2018-12-16T09:30:28.473Z,145.22
2018-12-16T09:32:56.069Z,242.83
2018-12-16T09:35:23.636Z,115.77
2018-12-16T09:37:51.212Z,166.07
2018-12-16T09:40:18.769Z,200.43
2018-12-16T09:42:46.328Z,95.40
2018-12-16T09:45:14.144Z,191.47
2018-12-16T09:47:41.696Z,99.27
2018-12-16T09:50:09.255Z,95.20
2018-12-16T09:52:36.828Z,78.67
2018-12-16T09:55:05.006Z,125.40
2018-12-16T09:57:32.563Z,97.03
2018-12-16T10:00:00.125Z,92.07
2018-12-16T10:02:27.686Z,97.80
2018-12-16T10:04:55.275Z,94.50
2018-12-16T10:07:22.851Z,164.83
2018-12-16T10:09:50.405Z,101.60
2018-12-16T10:12:17.967Z,117.20
2018-12-16T10:14:45.553Z,120.60
2018-12-16T10:17:13.107Z,102.63
2018-12-16T10:19:40.664Z,117.97
2018-12-16T10:22:08.221Z,70.67
2018-12-16T10:24:35.844Z,78.30
2018-12-16T10:27:03.400Z,76.90
2018-12-16T10:29:31.216Z,92.17
2018-12-16T10:31:58.779Z,93.63
2018-12-16T10:34:26.336Z,110.97
2018-12-16T10:36:53.895Z,106.47
2018-12-16T10:39:21.452Z,107.63
2018-12-16T10:41:49.009Z,84.93
2018-12-16T10:44:16.878Z,107.10
2018-12-16T10:46:44.443Z,153.97
2018-12-16T10:49:12.000Z,104.30
2018-12-16T10:51:39.560Z,181.87
2018-12-16T10:54:07.120Z,91.23
2018-12-16T10:56:34.680Z,146.47
2018-12-16T10:59:02.439Z,79.67
2018-12-16T11:01:29.999Z,105.87
2018-12-16T11:03:57.555Z,116.13
2018-12-16T11:06:25.116Z,184.57
2018-12-16T11:08:52.863Z,163.93
2018-12-16T11:11:20.424Z,94.43
2018-12-16T11:13:48.509Z,105.13
2018-12-16T11:16:16.069Z,161.00
2018-12-16T11:18:43.621Z,125.93
2018-12-16T11:21:11.183Z,108.80
2018-12-16T11:23:38.747Z,86.53
2018-12-16T11:26:06.304Z,83.80
2018-12-16T11:28:34.025Z,108.07
2018-12-16T11:31:01.587Z,141.33
2018-12-16T11:33:29.145Z,81.37
2018-12-16T11:35:57.159Z,109.30
2018-12-16T11:38:24.711Z,84.37
2018-12-16T11:40:52.272Z,101.13
2018-12-16T11:43:19.835Z,103.37
2018-12-16T11:45:47.396Z,137.90
2018-12-16T11:48:14.963Z,107.40
2018-12-16T11:50:43.107Z,79.60
2018-12-16T11:53:13.698Z,188.57
2018-12-16T11:55:41.336Z,109.40
2018-12-16T11:58:09.202Z,100.50
2018-12-16T12:00:38.561Z,202.37
2018-12-16T12:03:06.124Z,154.20
2018-12-16T12:05:33.691Z,105.37
2018-12-16T12:08:01.249Z,112.77
2018-12-16T12:10:28.808Z,107.73
2018-12-16T12:12:56.363Z,108.70
2018-12-16T12:15:24.011Z,109.70
2018-12-16T12:17:51.563Z,103.57
2018-12-16T12:20:20.931Z,182.83
2018-12-16T12:22:50.098Z,143.70
2018-12-16T12:25:20.011Z,131.93
2018-12-16T12:27:47.248Z,118.37
2018-12-16T12:30:14.810Z,117.00
2018-12-16T12:32:42.376Z,121.10
2018-12-16T12:35:10.287Z,95.20
2018-12-16T12:37:37.848Z,131.00
2018-12-16T12:40:05.684Z,189.27
2018-12-16T12:42:33.250Z,114.47
2018-12-16T12:45:00.809Z,189.40
2018-12-16T12:47:28.371Z,183.10
2018-12-16T12:49:55.932Z,149.57
2018-12-16T12:52:23.495Z,108.40
2018-12-16T12:54:51.055Z,87.13
2018-12-16T12:57:18.620Z,131.53
2018-12-16T12:59:46.540Z,89.77
2018-12-16T13:02:14.684Z,147.20
2018-12-16T13:04:42.251Z,120.10
2018-12-16T13:07:09.814Z,100.07
2018-12-16T13:09:37.383Z,131.07
2018-12-16T13:12:05.212Z,130.33
2018-12-16T13:14:32.767Z,107.27
2018-12-16T13:17:00.455Z,127.23
2018-12-16T13:19:29.725Z,159.33
2018-12-16T13:21:57.484Z,151.10
2018-12-16T13:24:25.045Z,161.23
2018-12-16T13:26:53.073Z,183.30
2018-12-16T13:29:20.623Z,187.77
2018-12-16T13:31:48.181Z,117.37
2018-12-16T13:34:15.755Z,161.20
2018-12-16T13:36:43.321Z,306.20
2018-12-16T13:39:11.222Z,165.87
2018-12-16T13:41:39.300Z,113.67
2018-12-16T13:44:06.863Z,106.50
2018-12-16T13:46:34.771Z,120.70
2018-12-16T13:49:02.341Z,159.47
2018-12-16T13:51:29.907Z,147.03
2018-12-16T13:53:57.517Z,124.07
2018-12-16T13:56:25.132Z,116.47
2018-12-16T13:58:52.755Z,127.20
2018-12-16T14:01:20.312Z,132.67
2018-12-16T14:03:47.874Z,115.47
2018-12-16T14:06:15.478Z,133.00
2018-12-16T14:08:43.333Z,113.43
2018-12-16T14:11:10.909Z,131.77
2018-12-16T14:13:38.465Z,112.53
2018-12-16T14:16:06.022Z,153.80
2018-12-16T14:18:33.587Z,112.87
2018-12-16T14:21:01.157Z,131.47
2018-12-16T14:23:28.721Z,110.63
2018-12-16T14:25:56.283Z,96.23
2018-12-16T14:28:23.841Z,113.03
2018-12-16T14:30:51.406Z,114.33
2018-12-16T14:33:19.293Z,114.63
2018-12-16T14:35:46.850Z,133.80
2018-12-16T14:38:14.599Z,146.97
2018-12-16T14:40:42.567Z,131.57
2018-12-16T14:43:10.131Z,146.07
2018-12-16T14:45:37.839Z,142.10
2018-12-16T14:48:05.815Z,121.93
2018-12-16T14:50:33.368Z,151.80
2018-12-16T14:53:00.924Z,133.27
2018-12-16T14:55:28.488Z,114.60
2018-12-16T14:57:56.064Z,137.40
2018-12-16T15:00:23.640Z,138.73
2018-12-16T15:02:51.224Z,115.00
2018-12-16T15:05:18.790Z,123.80
2018-12-16T15:07:46.370Z,141.90
2018-12-16T15:10:13.935Z,139.47
2018-12-16T15:12:41.513Z,152.10
2018-12-16T15:15:12.982Z,147.67
2018-12-16T15:17:42.971Z,131.73
2018-12-16T15:20:11.857Z,164.53
2018-12-16T15:22:39.501Z,125.97
2018-12-16T15:25:08.520Z,134.20
2018-12-16T15:27:36.426Z,126.83
2018-12-16T15:30:06.016Z,149.93
2018-12-16T15:32:34.528Z,128.53
2018-12-16T15:35:02.451Z,134.77
2018-12-16T15:37:30.027Z,127.07
2018-12-16T15:39:58.151Z,141.87
2018-12-16T15:42:26.512Z,166.07
2018-12-16T15:44:54.083Z,179.40
2018-12-16T15:47:22.058Z,175.93
2018-12-16T15:49:49.608Z,162.07
2018-12-16T15:52:17.173Z,169.00
2018-12-16T15:54:44.724Z,172.73
2018-12-16T15:57:12.279Z,150.90
2018-12-16T15:59:39.838Z,164.00
2018-12-16T16:02:07.724Z,159.83
2018-12-16T16:04:35.306Z,190.27
2018-12-16T16:07:02.868Z,164.97
2018-12-16T16:09:31.020Z,211.47
2018-12-16T16:11:58.591Z,161.23
2018-12-16T16:14:26.182Z,182.20
2018-12-16T16:16:53.972Z,169.57
2018-12-16T16:19:21.536Z,168.67
2018-12-16T16:21:49.107Z,157.07
2018-12-16T16:24:16.788Z,187.77
2018-12-16T16:26:44.403Z,184.83
2018-12-16T16:29:11.968Z,158.87
2018-12-16T16:31:39.785Z,186.30
2018-12-16T16:34:07.377Z,152.07
2018-12-16T16:36:35.897Z,146.30
2018-12-16T16:39:05.411Z,178.17
2018-12-16T16:41:34.101Z,147.57
2018-12-16T16:44:01.701Z,172.13
2018-12-16T16:46:30.228Z,154.53
2018-12-16T16:48:57.835Z,166.27
2018-12-16T16:51:25.395Z,182.83
2018-12-16T16:53:52.975Z,209.63
2018-12-16T16:56:23.087Z,198.87
2018-12-16T16:58:50.868Z,157.60
2018-12-16T17:01:19.165Z,174.53
2018-12-16T17:03:47.367Z,161.47
2018-12-16T17:06:15.771Z,218.87
2018-12-16T17:08:43.664Z,189.03
2018-12-16T17:11:11.384Z,199.23
2018-12-16T17:13:38.958Z,186.60
2018-12-16T17:16:06.521Z,224.63
2018-12-16T17:18:34.638Z,192.57
2018-12-16T17:21:03.038Z,181.47
2018-12-16T17:23:31.012Z,226.17
2018-12-16T17:25:58.575Z,157.07
2018-12-16T17:28:26.131Z,204.77
2018-12-16T17:30:53.691Z,254.60
2018-12-16T17:33:22.212Z,198.80
2018-12-16T17:35:50.774Z,184.73
2018-12-16T17:38:18.352Z,206.53
2018-12-16T17:40:45.910Z,230.63
2018-12-16T17:43:13.501Z,200.57
2018-12-16T17:45:41.404Z,180.30
2018-12-16T17:48:08.963Z,152.27
2018-12-16T17:50:36.523Z,174.77
2018-12-16T17:53:04.086Z,161.30
2018-12-16T17:55:31.811Z,132.40
2018-12-16T17:57:59.491Z,128.50
2018-12-16T18:00:27.339Z,120.07
2018-12-16T18:02:54.903Z,124.40
2018-12-16T18:05:22.472Z,138.10
2018-12-16T18:07:50.029Z,138.50
2018-12-16T18:10:17.589Z,123.30
2018-12-16T18:12:45.779Z,132.63
2018-12-16T18:15:13.351Z,177.37
2018-12-16T18:17:41.907Z,163.50
2018-12-16T18:20:09.468Z,175.53
2018-12-16T18:22:37.056Z,143.03
2018-12-16T18:25:04.685Z,165.20
2018-12-16T18:27:32.248Z,165.83
2018-12-16T18:30:00.065Z,199.47
2018-12-16T18:32:27.627Z,160.33
2018-12-16T18:34:55.200Z,179.27
2018-12-16T18:37:22.772Z,173.83
2018-12-16T18:39:50.341Z,199.97
2018-12-16T18:42:17.902Z,192.33
2018-12-16T18:44:46.032Z,209.13
2018-12-16T18:47:13.612Z,180.83
2018-12-16T18:49:41.175Z,203.50
2018-12-16T18:52:08.984Z,134.77
2018-12-16T18:54:36.547Z,140.50
2018-12-16T18:57:07.302Z,122.03
2018-12-16T18:59:33.696Z,118.33
2018-12-16T19:02:01.262Z,118.97
2018-12-16T19:04:28.830Z,110.50
2018-12-16T19:06:56.492Z,98.03
2018-12-16T19:09:24.064Z,101.10
2018-12-16T19:11:51.662Z,91.30
2018-12-16T19:14:19.298Z,99.87
2018-12-16T19:16:46.856Z,91.33
2018-12-16T19:19:14.722Z,92.70
2018-12-16T19:21:42.290Z,92.50
2018-12-16T19:24:09.847Z,77.40
2018-12-16T19:26:37.401Z,85.53
2018-12-16T19:29:05.476Z,79.73
2018-12-16T19:31:33.382Z,77.67
2018-12-16T19:34:00.943Z,86.37
2018-12-16T19:36:28.504Z,85.60
2018-12-16T19:38:56.053Z,90.10
2018-12-16T19:41:23.624Z,78.40
2018-12-16T19:43:51.187Z,83.67
2018-12-16T19:46:18.740Z,88.17
2018-12-16T19:48:46.300Z,75.60
2018-12-16T19:51:13.876Z,69.47
2018-12-16T19:53:41.436Z,77.60
2018-12-16T19:56:08.991Z,73.23
2018-12-16T19:58:36.734Z,63.33
2018-12-16T20:01:04.294Z,68.03
2018-12-16T20:03:32.044Z,78.07
2018-12-16T20:06:05.295Z,81.53
2018-12-16T20:08:32.852Z,77.03
2018-12-16T20:11:00.446Z,81.80
2018-12-16T20:13:28.047Z,88.20
2018-12-16T20:16:01.464Z,80.60
2018-12-16T20:18:25.208Z,87.53
2018-12-16T20:20:52.991Z,91.07
2018-12-16T20:23:20.552Z,92.13
2018-12-16T20:25:48.111Z,101.03
2018-12-16T20:28:16.143Z,95.23
2018-12-16T20:30:43.703Z,90.10
2018-12-16T20:33:11.275Z,107.80
2018-12-16T20:35:39.440Z,103.43
2018-12-16T20:38:07.218Z,116.47
2018-12-16T20:40:34.875Z,107.93
2018-12-16T20:43:02.464Z,125.80
2018-12-16T20:45:30.103Z,119.20
2018-12-16T20:47:57.672Z,119.43
2018-12-16T20:50:25.247Z,153.27
2018-12-16T20:52:52.828Z,139.80
2018-12-16T20:55:20.409Z,141.77
2018-12-16T20:57:48.388Z,178.90
2018-12-16T21:00:15.968Z,155.63
2018-12-16T21:02:43.547Z,156.30
2018-12-16T21:05:11.120Z,147.43
2018-12-16T21:07:38.676Z,143.57
2018-12-16T21:10:06.244Z,160.53
2018-12-16T21:12:40.797Z,158.13
2018-12-16T21:15:14.127Z,190.50
2018-12-16T21:17:47.364Z,185.90
2018-12-16T21:20:14.956Z,163.57
2018-12-16T21:22:43.448Z,162.93
2018-12-16T21:25:11.015Z,163.43
2018-12-16T21:27:38.592Z,178.10
2018-12-16T21:30:07.536Z,146.97
2018-12-16T21:32:35.106Z,147.13
2018-12-16T21:35:02.669Z,120.93
2018-12-16T21:37:30.235Z,143.97
2018-12-16T21:39:57.816Z,168.73
2018-12-16T21:42:25.374Z,149.53
2018-12-16T21:44:52.941Z,149.73
2018-12-16T21:47:20.869Z,154.83
2018-12-16T21:49:48.428Z,138.93
2018-12-16T21:52:16.007Z,176.33
2018-12-16T21:54:43.865Z,163.20
2018-12-16T21:57:11.428Z,148.53
2018-12-16T21:59:39.209Z,144.67
2018-12-16T22:02:07.170Z,174.63
2018-12-16T22:04:34.751Z,177.63
2018-12-16T22:07:02.325Z,138.70
2018-12-16T22:09:29.916Z,137.63
2018-12-16T22:11:58.224Z,128.53
2018-12-16T22:14:25.810Z,135.80
2018-12-16T22:16:53.756Z,124.10
2018-12-16T22:19:21.308Z,122.67
2018-12-16T22:21:48.884Z,120.13
2018-12-16T22:24:16.459Z,121.23
2018-12-16T22:26:44.025Z,114.70
2018-12-16T22:29:11.603Z,109.90
2018-12-16T22:31:39.182Z,109.50
2018-12-16T22:34:06.742Z,107.30
2018-12-16T22:36:34.307Z,108.23
2018-12-16T22:39:01.889Z,105.97
2018-12-16T22:41:29.515Z,110.07
2018-12-16T22:43:57.159Z,100.93
2018-12-16T22:46:24.817Z,111.50
2018-12-16T22:48:52.389Z,115.07
2018-12-16T22:51:19.969Z,116.43
2018-12-16T22:53:47.531Z,129.50
2018-12-16T22:56:16.045Z,102.13
2018-12-16T22:58:43.673Z,114.77
2018-12-16T23:01:16.072Z,116.90
2018-12-16T23:03:43.632Z,119.10
2018-12-16T23:06:11.209Z,126.57
2018-12-16T23:08:39.265Z,129.30
2018-12-16T23:11:06.847Z,130.70
2018-12-16T23:13:34.636Z,130.80
2018-12-16T23:16:02.218Z,126.63
2018-12-16T23:18:29.787Z,114.97
2018-12-16T23:20:57.352Z,114.10
2018-12-16T23:23:24.970Z,113.50
2018-12-16T23:25:52.531Z,96.30
2018-12-16T23:28:20.280Z,89.43
2018-12-16T23:30:47.856Z,83.87
2018-12-16T23:33:15.494Z,89.67
2018-12-16T23:35:43.129Z,89.67
2018-12-16T23:38:11.095Z,88.13
2018-12-16T23:40:38.660Z,90.87
2018-12-16T23:43:06.216Z,113.60
2018-12-16T23:45:33.784Z,102.83
2018-12-16T23:48:01.363Z,110.07
2018-12-16T23:50:28.939Z,114.60
2018-12-16T23:52:56.508Z,123.85
2018-12-16T23:55:24.105Z,112.17
2018-12-16T23:57:51.665Z,116.73
